Time;durP1;ratioP1;P1;durP2;ratioP2;P2;SDS_P1;SDS_P2;PMS_P1;PMS_P2;Temp;Humidity;BMP_temperature;BMP_pressure;BME280_temperature;BME280_humidity;BME280_pressure;Samples;Min_cycle;Max_cycle;Signal;HPM_P1;HPM_P2
2023/09/16 00:02:16;;;;;;;10.35;5.65;;;;;;;;;;4993155;28;20270;-74
2023/09/16 00:04:41;;;;;;;7.28;4.60;;;;;;;;;;4993135;28;20026;-75
2023/09/16 00:07:06;;;;;;;8.48;4.20;;;;;;;;;;4993090;28;20042;-75
2023/09/16 00:09:33;;;;;;;5.38;3.92;;;;;;;;;;4975750;28;20073;-75
2023/09/16 00:11:58;;;;;;;7.40;4.68;;;;;;;;;;4993058;28;20027;-75
2023/09/16 00:14:24;;;;;;;6.60;4.65;;;;;;;;;;4993240;28;20022;-75
2023/09/16 00:16:51;;;;;;;8.60;4.65;;;;;;;;;;4993039;28;20050;-75
2023/09/16 00:19:17;;;;;;;7.35;4.45;;;;;;;;;;4992737;28;20018;-74
2023/09/16 00:21:43;;;;;;;6.68;4.20;;;;;;;;;;4992596;28;20089;-77
2023/09/16 00:24:10;;;;;;;6.88;4.35;;;;;;;;;;4974341;28;20500;-75
2023/09/16 00:26:35;;;;;;;7.50;5.80;;;;;;;;;;4993012;28;20026;-75
2023/09/16 00:29:00;;;;;;;10.05;5.53;;;;;;;;;;4993368;28;20486;-75
2023/09/16 00:31:27;;;;;;;10.05;6.05;;;;;;;;;;4977550;28;20022;-74
2023/09/16 00:33:52;;;;;;;8.00;5.45;;;;;;;;;;4979026;28;20026;-75
2023/09/16 00:36:17;;;;;;;9.85;5.30;;;;;;;;;;4979118;28;20072;-75
2023/09/16 00:38:43;;;;;;;7.60;5.07;;;;;;;;;;4996765;28;20026;-75
2023/09/16 00:41:08;;;;;;;7.68;4.85;;;;;;;;;;4978995;28;20040;-75
2023/09/16 00:43:34;;;;;;;6.68;4.47;;;;;;;;;;4978764;28;20018;-75
2023/09/16 00:45:59;;;;;;;10.18;4.80;;;;;;;;;;4996508;28;20387;-74
2023/09/16 00:48:25;;;;;;;8.00;5.30;;;;;;;;;;4996262;28;20041;-75
2023/09/16 00:50:50;;;;;;;7.20;4.65;;;;;;;;;;4996185;28;20022;-75
2023/09/16 00:53:16;;;;;;;10.60;4.78;;;;;;;;;;4978805;28;20026;-75
2023/09/16 00:55:44;;;;;;;7.97;5.10;;;;;;;;;;4996143;28;20065;-75
2023/09/16 00:58:11;;;;;;;6.88;4.72;;;;;;;;;;4996045;28;20042;-75
2023/09/16 01:00:37;;;;;;;7.55;4.90;;;;;;;;;;4978485;28;20072;-75
2023/09/16 01:03:04;;;;;;;5.97;4.18;;;;;;;;;;4996069;28;20408;-75
2023/09/16 01:05:30;;;;;;;7.35;4.43;;;;;;;;;;4978765;28;20378;-75
2023/09/16 01:07:55;;;;;;;6.00;4.60;;;;;;;;;;4978377;28;20041;-75
2023/09/16 01:10:20;;;;;;;7.28;4.80;;;;;;;;;;4995925;28;20097;-75
2023/09/16 01:12:48;;;;;;;6.07;4.40;;;;;;;;;;4996259;28;20018;-74
2023/09/16 01:15:16;;;;;;;5.57;3.90;;;;;;;;;;4995832;28;20101;-75
2023/09/16 01:18:34;;;;;;;5.30;3.85;;;;;;;;;;4995744;28;20026;-75
2023/09/16 01:21:00;;;;;;;6.22;4.03;;;;;;;;;;4934482;29;20039;-76
2023/09/16 01:23:25;;;;;;;6.03;4.10;;;;;;;;;;4981425;28;20486;-75
2023/09/16 01:25:50;;;;;;;7.00;4.22;;;;;;;;;;4995687;28;20039;-75
2023/09/16 01:28:16;;;;;;;5.38;3.95;;;;;;;;;;4995560;28;20478;-75
2023/09/16 01:30:48;;;;;;;6.47;4.00;;;;;;;;;;4995773;28;20034;-75
2023/09/16 01:33:21;;;;;;;5.93;3.88;;;;;;;;;;4995423;28;20512;-75
2023/09/16 01:35:50;;;;;;;6.37;4.60;;;;;;;;;;4995822;28;20038;-74
2023/09/16 01:38:20;;;;;;;6.43;3.95;;;;;;;;;;4995421;28;20260;-75
2023/09/16 01:40:48;;;;;;;6.43;4.00;;;;;;;;;;4995430;28;20493;-75
2023/09/16 01:43:15;;;;;;;6.88;4.30;;;;;;;;;;4977545;28;20409;-75
2023/09/16 01:45:44;;;;;;;8.35;4.03;;;;;;;;;;4995544;28;20022;-74
2023/09/16 01:48:10;;;;;;;6.88;4.10;;;;;;;;;;4995210;28;20034;-76
2023/09/16 01:50:35;;;;;;;6.95;4.18;;;;;;;;;;4995572;28;20064;-75
2023/09/16 01:53:01;;;;;;;7.95;4.57;;;;;;;;;;4995146;28;20485;-75
2023/09/16 01:55:27;;;;;;;5.95;4.30;;;;;;;;;;4977558;28;20486;-75
2023/09/16 01:57:52;;;;;;;7.18;4.03;;;;;;;;;;4995120;28;20109;-75
2023/09/16 02:00:17;;;;;;;6.45;4.10;;;;;;;;;;4995076;28;20029;-74
2023/09/16 02:02:43;;;;;;;7.97;4.40;;;;;;;;;;4995089;28;20037;-74
2023/09/16 02:05:09;;;;;;;7.57;4.55;;;;;;;;;;4995340;28;20478;-75
2023/09/16 02:07:34;;;;;;;7.13;4.22;;;;;;;;;;4977321;28;20027;-75
2023/09/16 02:09:59;;;;;;;6.10;4.63;;;;;;;;;;4977293;28;20473;-75
2023/09/16 02:12:24;;;;;;;6.23;4.37;;;;;;;;;;4995219;28;20022;-74
2023/09/16 02:14:51;;;;;;;6.23;4.20;;;;;;;;;;4995013;28;20252;-74
2023/09/16 02:17:17;;;;;;;6.70;3.97;;;;;;;;;;4994659;28;20252;-75
2023/09/16 02:19:43;;;;;;;5.78;4.05;;;;;;;;;;4994550;28;20101;-75
2023/09/16 02:22:08;;;;;;;6.13;4.30;;;;;;;;;;4994748;28;20053;-75
2023/09/16 02:24:34;;;;;;;6.20;4.20;;;;;;;;;;4994669;28;20452;-75
2023/09/16 02:26:59;;;;;;;6.72;3.92;;;;;;;;;;4977004;28;20264;-75
2023/09/16 02:29:24;;;;;;;7.28;4.40;;;;;;;;;;4994499;28;20397;-75
2023/09/16 02:31:50;;;;;;;5.90;3.75;;;;;;;;;;4994602;28;20431;-74
2023/09/16 02:34:15;;;;;;;5.65;4.20;;;;;;;;;;4976737;28;20500;-74
2023/09/16 02:36:40;;;;;;;6.93;4.15;;;;;;;;;;4994305;28;20113;-74
2023/09/16 02:39:06;;;;;;;10.15;4.50;;;;;;;;;;4994101;28;20025;-75
2023/09/16 02:41:31;;;;;;;6.90;4.30;;;;;;;;;;4994302;28;20038;-75
2023/09/16 02:43:57;;;;;;;7.28;4.85;;;;;;;;;;4994093;28;20029;-75
2023/09/16 02:46:22;;;;;;;7.50;4.13;;;;;;;;;;4994222;28;20037;-75
2023/09/16 02:48:47;;;;;;;7.70;4.00;;;;;;;;;;4994043;28;20029;-75
2023/09/16 02:51:12;;;;;;;6.50;4.10;;;;;;;;;;4994041;28;20029;-75
2023/09/16 02:53:38;;;;;;;7.10;4.15;;;;;;;;;;4993168;28;20259;-75
2023/09/16 02:56:03;;;;;;;16.27;7.32;;;;;;;;;;4976608;28;20588;-74
2023/09/16 02:58:29;;;;;;;19.85;10.73;;;;;;;;;;4977053;28;20104;-75
2023/09/16 03:00:54;;;;;;;16.20;9.52;;;;;;;;;;4993272;28;20158;-76
2023/09/16 03:03:19;;;;;;;11.88;6.80;;;;;;;;;;4992887;28;20026;-75
2023/09/16 03:05:45;;;;;;;12.07;5.25;;;;;;;;;;4975621;28;20493;-74
2023/09/16 03:08:13;;;;;;;12.82;5.13;;;;;;;;;;4993471;28;20049;-75
2023/09/16 03:10:39;;;;;;;8.57;4.85;;;;;;;;;;4992405;28;20026;-75
2023/09/16 03:13:04;;;;;;;6.72;4.57;;;;;;;;;;4993594;28;20112;-75
2023/09/16 03:15:29;;;;;;;7.65;4.05;;;;;;;;;;4993670;28;20037;-75
2023/09/16 03:17:55;;;;;;;6.38;3.90;;;;;;;;;;4994428;28;20026;-75
2023/09/16 03:20:20;;;;;;;5.45;3.78;;;;;;;;;;4993629;28;20033;-75
2023/09/16 03:22:45;;;;;;;8.00;3.92;;;;;;;;;;4993534;28;20030;-75
2023/09/16 03:25:11;;;;;;;5.10;3.97;;;;;;;;;;4993550;28;20500;-75
2023/09/16 03:27:37;;;;;;;6.20;3.72;;;;;;;;;;4976136;28;20252;-73
2023/09/16 03:30:03;;;;;;;5.43;3.80;;;;;;;;;;4993371;28;20034;-75
2023/09/16 03:32:29;;;;;;;6.30;4.43;;;;;;;;;;4975918;28;20109;-75
2023/09/16 03:34:54;;;;;;;5.68;4.10;;;;;;;;;;4993486;28;20052;-75
2023/09/16 03:37:19;;;;;;;6.40;3.87;;;;;;;;;;4993398;28;20450;-75
2023/09/16 03:39:45;;;;;;;5.35;3.70;;;;;;;;;;4993354;28;20268;-74
2023/09/16 03:42:10;;;;;;;4.90;3.57;;;;;;;;;;4993297;28;20022;-75
2023/09/16 03:44:36;;;;;;;7.07;3.97;;;;;;;;;;4975770;28;20343;-75
2023/09/16 03:47:02;;;;;;;6.60;3.75;;;;;;;;;;4993031;28;20264;-75
2023/09/16 03:49:27;;;;;;;5.55;3.70;;;;;;;;;;4992685;28;20469;-76
2023/09/16 03:51:52;;;;;;;4.88;3.80;;;;;;;;;;4975260;28;20027;-74
2023/09/16 03:54:18;;;;;;;6.80;3.80;;;;;;;;;;4992446;28;20030;-75
2023/09/16 03:56:43;;;;;;;7.40;3.88;;;;;;;;;;4993563;28;20076;-75
2023/09/16 03:59:09;;;;;;;4.10;3.22;;;;;;;;;;4993320;28;20045;-75
2023/09/16 04:01:34;;;;;;;4.47;3.58;;;;;;;;;;4993327;28;20157;-75
2023/09/16 04:04:00;;;;;;;5.22;3.78;;;;;;;;;;4976055;28;20113;-75
2023/09/16 04:06:26;;;;;;;5.63;3.80;;;;;;;;;;4994862;28;20031;-75
2023/09/16 04:08:51;;;;;;;5.30;3.95;;;;;;;;;;4997071;28;20028;-75
2023/09/16 04:11:16;;;;;;;6.97;3.80;;;;;;;;;;4996981;28;20026;-75
2023/09/16 04:13:43;;;;;;;5.10;3.90;;;;;;;;;;4996957;28;20022;-74
2023/09/16 04:16:08;;;;;;;7.82;3.90;;;;;;;;;;4996962;28;20051;-74
2023/09/16 04:18:34;;;;;;;7.13;4.10;;;;;;;;;;4996854;28;20485;-76
2023/09/16 04:21:02;;;;;;;6.05;3.60;;;;;;;;;;4979417;28;20030;-75
2023/09/16 04:23:28;;;;;;;6.50;3.78;;;;;;;;;;4996765;28;20022;-75
2023/09/16 04:25:55;;;;;;;6.00;3.80;;;;;;;;;;4996794;28;20077;-75
2023/09/16 04:28:20;;;;;;;4.88;3.60;;;;;;;;;;4997036;28;20018;-75
2023/09/16 04:30:49;;;;;;;4.75;3.70;;;;;;;;;;4996921;28;20433;-75
2023/09/16 04:33:14;;;;;;;5.65;3.60;;;;;;;;;;4996578;28;20109;-75
2023/09/16 04:35:47;;;;;;;5.78;3.30;;;;;;;;;;4996535;28;20058;-75
2023/09/16 04:38:13;;;;;;;4.78;3.75;;;;;;;;;;4996628;28;20409;-75
2023/09/16 04:40:41;;;;;;;7.72;3.72;;;;;;;;;;4996466;28;20026;-75
2023/09/16 04:43:06;;;;;;;4.90;3.60;;;;;;;;;;4996370;28;20032;-75
2023/09/16 04:45:32;;;;;;;5.13;3.58;;;;;;;;;;4996493;28;20464;-75
2023/09/16 04:47:57;;;;;;;6.93;3.55;;;;;;;;;;4996397;28;20038;-74
2023/09/16 04:50:23;;;;;;;6.55;3.70;;;;;;;;;;4996645;28;20355;-74
2023/09/16 04:52:48;;;;;;;5.50;3.35;;;;;;;;;;4996289;28;20029;-75
2023/09/16 04:55:14;;;;;;;5.65;3.72;;;;;;;;;;4996331;28;20036;-75
2023/09/16 04:57:40;;;;;;;5.00;3.78;;;;;;;;;;4996215;28;20030;-75
2023/09/16 05:00:06;;;;;;;5.72;3.72;;;;;;;;;;4996357;28;20072;-75
2023/09/16 05:02:32;;;;;;;4.95;3.72;;;;;;;;;;4978826;28;20076;-74
2023/09/16 05:04:58;;;;;;;4.85;3.50;;;;;;;;;;4996068;28;20034;-75
2023/09/16 05:07:23;;;;;;;6.68;3.80;;;;;;;;;;4978532;28;20038;-75
2023/09/16 05:09:48;;;;;;;4.93;3.57;;;;;;;;;;4995943;28;20057;-75
2023/09/16 05:12:13;;;;;;;4.23;3.27;;;;;;;;;;4995851;28;20256;-75
2023/09/16 05:14:38;;;;;;;4.43;3.28;;;;;;;;;;4995842;28;20248;-75
2023/09/16 05:17:04;;;;;;;6.13;3.58;;;;;;;;;;4995326;28;20084;-75
2023/09/16 05:19:31;;;;;;;5.47;3.33;;;;;;;;;;4996065;28;20375;-74
2023/09/16 05:21:56;;;;;;;5.95;3.75;;;;;;;;;;4996043;28;20045;-75
2023/09/16 05:24:21;;;;;;;7.22;3.75;;;;;;;;;;4995859;28;20026;-75
2023/09/16 05:26:46;;;;;;;5.82;3.88;;;;;;;;;;4978207;28;20509;-75
2023/09/16 05:29:12;;;;;;;5.55;3.63;;;;;;;;;;4995736;28;20460;-75
2023/09/16 05:31:37;;;;;;;4.67;3.40;;;;;;;;;;4995720;28;20018;-75
2023/09/16 05:34:02;;;;;;;5.75;4.00;;;;;;;;;;4995524;28;20271;-75
2023/09/16 05:36:27;;;;;;;6.55;3.65;;;;;;;;;;4995464;28;20117;-75
2023/09/16 05:38:53;;;;;;;4.00;3.15;;;;;;;;;;4995479;28;20398;-75
2023/09/16 05:41:18;;;;;;;4.53;3.35;;;;;;;;;;4995350;28;20062;-75
2023/09/16 05:43:43;;;;;;;4.75;3.42;;;;;;;;;;4995675;28;20077;-75
2023/09/16 05:46:09;;;;;;;5.53;3.30;;;;;;;;;;4995449;28;20027;-75
2023/09/16 05:48:34;;;;;;;3.97;3.00;;;;;;;;;;4995540;28;20291;-75
2023/09/16 05:51:00;;;;;;;5.70;3.70;;;;;;;;;;4995370;28;20252;-75
2023/09/16 05:53:26;;;;;;;4.30;3.30;;;;;;;;;;4977705;28;20034;-75
2023/09/16 05:55:53;;;;;;;4.10;3.20;;;;;;;;;;4995072;28;20038;-75
2023/09/16 05:58:18;;;;;;;5.05;3.33;;;;;;;;;;4977511;28;20023;-75
2023/09/16 06:00:43;;;;;;;5.07;3.40;;;;;;;;;;4995264;28;20029;-75
2023/09/16 06:03:09;;;;;;;3.90;3.22;;;;;;;;;;4994943;28;20030;-75
2023/09/16 06:05:34;;;;;;;5.63;3.45;;;;;;;;;;4994812;28;20037;-74
2023/09/16 06:08:00;;;;;;;4.90;3.20;;;;;;;;;;4994838;28;20026;-74
2023/09/16 06:10:26;;;;;;;5.60;3.60;;;;;;;;;;4977420;28;20034;-75
2023/09/16 06:12:51;;;;;;;6.63;3.40;;;;;;;;;;4994914;28;20097;-74
2023/09/16 06:15:17;;;;;;;4.07;3.20;;;;;;;;;;4995084;28;20555;-75
2023/09/16 06:17:42;;;;;;;5.60;3.42;;;;;;;;;;4977243;28;20256;-74
2023/09/16 06:20:08;;;;;;;6.70;3.50;;;;;;;;;;4994924;28;20121;-75
2023/09/16 06:22:33;;;;;;;7.60;3.33;;;;;;;;;;4994531;28;20109;-74
2023/09/16 06:24:59;;;;;;;7.45;3.42;;;;;;;;;;4977154;28;20100;-74
2023/09/16 06:27:24;;;;;;;7.78;3.20;;;;;;;;;;4994588;28;20022;-74
2023/09/16 06:29:50;;;;;;;5.15;3.47;;;;;;;;;;4993717;28;20029;-75
2023/09/16 06:32:16;;;;;;;3.92;3.30;;;;;;;;;;4994585;28;20030;-75
2023/09/16 06:34:41;;;;;;;7.65;3.17;;;;;;;;;;4994317;28;20441;-75
2023/09/16 06:37:06;;;;;;;4.93;3.13;;;;;;;;;;4994560;28;20026;-75
2023/09/16 06:39:33;;;;;;;4.57;3.20;;;;;;;;;;4976974;28;20029;-75
2023/09/16 06:41:58;;;;;;;4.43;3.00;;;;;;;;;;4977252;28;20519;-75
2023/09/16 06:44:23;;;;;;;4.00;3.05;;;;;;;;;;4994183;28;20117;-75
2023/09/16 06:46:49;;;;;;;3.75;2.90;;;;;;;;;;4994376;28;20022;-75
2023/09/16 06:49:14;;;;;;;6.43;3.20;;;;;;;;;;4994294;28;20018;-75
2023/09/16 06:51:40;;;;;;;5.13;2.67;;;;;;;;;;4994275;28;20268;-75
2023/09/16 06:54:05;;;;;;;3.80;2.90;;;;;;;;;;4976666;28;20165;-74
2023/09/16 06:56:30;;;;;;;4.20;2.90;;;;;;;;;;4976795;28;20260;-74
2023/09/16 06:58:56;;;;;;;4.90;2.47;;;;;;;;;;4994266;28;20163;-75
2023/09/16 07:01:23;;;;;;;4.53;2.75;;;;;;;;;;4994453;28;20252;-75
2023/09/16 07:03:48;;;;;;;3.65;2.63;;;;;;;;;;4994352;28;20026;-75
2023/09/16 07:06:13;;;;;;;5.95;3.05;;;;;;;;;;4994228;28;20109;-75
2023/09/16 07:08:38;;;;;;;3.78;2.35;;;;;;;;;;4994161;28;20027;-75
2023/09/16 07:11:04;;;;;;;4.90;3.00;;;;;;;;;;4994092;28;20030;-75
2023/09/16 07:13:29;;;;;;;5.55;2.65;;;;;;;;;;4994150;28;20121;-74
2023/09/16 07:15:55;;;;;;;3.80;2.47;;;;;;;;;;4976795;28;20076;-74
2023/09/16 07:18:23;;;;;;;4.50;2.88;;;;;;;;;;4994656;28;20030;-74
2023/09/16 07:20:49;;;;;;;4.75;2.35;;;;;;;;;;4994451;28;20077;-74
2023/09/16 07:23:14;;;;;;;3.70;2.40;;;;;;;;;;4993755;28;20062;-75
2023/09/16 07:25:39;;;;;;;4.10;2.30;;;;;;;;;;4994667;28;20026;-75
2023/09/16 07:28:07;;;;;;;7.60;2.40;;;;;;;;;;4994031;28;20037;-75
2023/09/16 07:30:32;;;;;;;5.00;2.53;;;;;;;;;;4994334;28;20334;-75
2023/09/16 07:32:58;;;;;;;3.97;2.22;;;;;;;;;;4976155;28;20061;-75
2023/09/16 07:35:23;;;;;;;3.70;2.40;;;;;;;;;;4993717;28;20053;-75
2023/09/16 07:37:50;;;;;;;4.13;2.53;;;;;;;;;;4993927;28;20264;-75
2023/09/16 07:40:15;;;;;;;4.18;2.10;;;;;;;;;;4993337;28;20018;-75
2023/09/16 07:42:40;;;;;;;4.07;2.50;;;;;;;;;;4993287;28;20033;-74
2023/09/16 07:45:06;;;;;;;3.55;2.20;;;;;;;;;;4993716;28;20307;-75
2023/09/16 07:47:32;;;;;;;4.07;2.58;;;;;;;;;;4993413;28;20022;-75
2023/09/16 07:49:58;;;;;;;2.95;2.20;;;;;;;;;;4993591;28;20023;-75
2023/09/16 07:52:23;;;;;;;5.15;2.30;;;;;;;;;;4975726;28;20038;-78
2023/09/16 07:54:48;;;;;;;4.07;1.92;;;;;;;;;;4993439;28;20114;-75
2023/09/16 07:57:14;;;;;;;3.63;2.40;;;;;;;;;;4993547;28;20031;-75
2023/09/16 07:59:39;;;;;;;3.13;2.15;;;;;;;;;;4993101;28;20276;-75
2023/09/16 08:02:04;;;;;;;3.75;2.42;;;;;;;;;;4993381;28;20045;-75
2023/09/16 08:04:31;;;;;;;3.83;2.40;;;;;;;;;;4975608;28;20024;-75
2023/09/16 08:06:57;;;;;;;5.32;2.45;;;;;;;;;;4993184;28;20113;-76
2023/09/16 08:09:22;;;;;;;3.42;2.47;;;;;;;;;;4993095;28;20070;-75
2023/09/16 08:11:48;;;;;;;4.45;2.47;;;;;;;;;;4993446;28;20030;-75
2023/09/16 08:14:13;;;;;;;8.38;2.55;;;;;;;;;;4993127;28;20034;-75
2023/09/16 08:16:39;;;;;;;3.60;2.30;;;;;;;;;;4993156;28;20026;-75
2023/09/16 08:19:04;;;;;;;4.33;2.30;;;;;;;;;;4975915;28;20466;-75
2023/09/16 08:21:29;;;;;;;3.22;2.30;;;;;;;;;;4975625;28;20635;-75
2023/09/16 08:23:54;;;;;;;4.32;2.35;;;;;;;;;;4993051;28;20030;-75
2023/09/16 08:26:30;;;;;;;3.47;2.45;;;;;;;;;;4993108;28;20121;-75
2023/09/16 08:28:56;;;;;;;3.92;2.38;;;;;;;;;;4993263;28;20022;-75
2023/09/16 08:31:21;;;;;;;5.80;2.37;;;;;;;;;;4993107;28;20022;-75
2023/09/16 08:33:48;;;;;;;7.03;2.40;;;;;;;;;;4993026;28;20260;-75
2023/09/16 08:36:14;;;;;;;3.15;2.40;;;;;;;;;;4993490;28;20027;-75
2023/09/16 08:38:39;;;;;;;3.40;2.50;;;;;;;;;;4992922;28;20037;-76
2023/09/16 08:41:14;;;;;;;3.45;2.30;;;;;;;;;;4975453;28;20022;-75
2023/09/16 08:43:40;;;;;;;4.00;2.45;;;;;;;;;;4993825;28;20069;-75
2023/09/16 08:46:09;;;;;;;3.63;2.22;;;;;;;;;;4975363;28;20054;-75
2023/09/16 08:48:39;;;;;;;4.75;2.50;;;;;;;;;;4992845;28;20066;-75
2023/09/16 08:51:07;;;;;;;3.88;3.00;;;;;;;;;;4993157;28;20037;-76
2023/09/16 08:53:36;;;;;;;2.92;2.08;;;;;;;;;;4995971;28;20030;-75
2023/09/16 08:56:03;;;;;;;3.03;2.40;;;;;;;;;;4996251;28;20105;-75
2023/09/16 08:58:33;;;;;;;4.15;2.28;;;;;;;;;;4996335;28;20077;-77
2023/09/16 09:00:58;;;;;;;3.53;2.40;;;;;;;;;;4978674;28;20027;-76
2023/09/16 09:03:24;;;;;;;4.63;2.40;;;;;;;;;;4979064;28;20110;-75
2023/09/16 09:05:49;;;;;;;3.85;2.40;;;;;;;;;;4996492;28;20351;-75
2023/09/16 09:08:14;;;;;;;5.33;2.63;;;;;;;;;;4978716;28;20030;-76
2023/09/16 09:10:40;;;;;;;3.53;2.47;;;;;;;;;;4996809;28;20298;-76
2023/09/16 09:13:10;;;;;;;3.85;2.35;;;;;;;;;;4979203;28;20038;-75
2023/09/16 09:15:38;;;;;;;6.78;2.47;;;;;;;;;;4996878;28;20077;-77
2023/09/16 09:18:05;;;;;;;4.72;2.58;;;;;;;;;;4997262;28;20034;-77
2023/09/16 09:20:31;;;;;;;5.07;2.55;;;;;;;;;;4996768;28;20045;-77
2023/09/16 09:22:56;;;;;;;3.55;2.58;;;;;;;;;;4979551;28;20030;-76
2023/09/16 09:25:23;;;;;;;3.63;2.72;;;;;;;;;;4996468;28;20022;-77
2023/09/16 09:27:50;;;;;;;4.85;2.10;;;;;;;;;;4978693;28;20026;-76
2023/09/16 09:30:16;;;;;;;3.42;2.40;;;;;;;;;;4995992;28;20026;-76
2023/09/16 09:32:47;;;;;;;5.43;2.50;;;;;;;;;;4996013;28;20033;-76
2023/09/16 09:35:13;;;;;;;3.42;2.50;;;;;;;;;;4996023;28;20062;-75
2023/09/16 09:37:39;;;;;;;3.30;2.50;;;;;;;;;;4996108;28;20085;-76
2023/09/16 09:40:09;;;;;;;6.18;2.42;;;;;;;;;;4995408;28;20022;-76
2023/09/16 09:42:57;;;;;;;3.58;2.33;;;;;;;;;;4995616;28;20035;-75
2023/09/16 09:45:24;;;;;;;3.63;2.60;;;;;;;;;;4996609;28;20030;-75
2023/09/16 09:47:51;;;;;;;4.38;2.55;;;;;;;;;;4979865;28;20518;-77
2023/09/16 09:50:18;;;;;;;3.92;2.45;;;;;;;;;;4979115;28;20080;-75
2023/09/16 09:52:52;;;;;;;4.45;2.40;;;;;;;;;;4995409;28;20034;-74
2023/09/16 09:55:18;;;;;;;8.23;2.60;;;;;;;;;;4995877;28;20038;-74
2023/09/16 09:57:45;;;;;;;3.50;2.38;;;;;;;;;;4995366;28;20485;-74
2023/09/16 10:00:17;;;;;;;3.58;2.42;;;;;;;;;;4977626;28;20018;-75
2023/09/16 10:02:43;;;;;;;3.55;2.65;;;;;;;;;;4977673;28;20623;-75
2023/09/16 10:05:22;;;;;;;3.40;2.40;;;;;;;;;;4995144;28;20026;-76
2023/09/16 10:07:49;;;;;;;4.80;2.40;;;;;;;;;;4995421;28;20026;-76
2023/09/16 10:10:16;;;;;;;2.92;2.50;;;;;;;;;;4994907;28;20105;-76
2023/09/16 10:12:43;;;;;;;4.35;2.78;;;;;;;;;;4977408;28;20033;-76
2023/09/16 10:15:09;;;;;;;3.03;2.47;;;;;;;;;;4994850;28;20026;-76
2023/09/16 10:17:34;;;;;;;4.63;2.40;;;;;;;;;;4994720;28;20033;-77
2023/09/16 10:20:00;;;;;;;5.22;2.15;;;;;;;;;;4994915;28;20062;-76
2023/09/16 10:22:25;;;;;;;4.32;2.50;;;;;;;;;;4977253;28;20401;-76
2023/09/16 10:24:52;;;;;;;3.55;2.50;;;;;;;;;;4977035;28;20022;-77
2023/09/16 10:27:24;;;;;;;3.40;2.67;;;;;;;;;;4994655;28;20026;-77
2023/09/16 10:29:50;;;;;;;3.00;2.40;;;;;;;;;;4977127;28;20116;-77
2023/09/16 10:32:16;;;;;;;3.80;2.38;;;;;;;;;;4994531;28;20037;-76
2023/09/16 10:34:44;;;;;;;4.38;2.42;;;;;;;;;;4976867;28;20018;-77
2023/09/16 10:37:10;;;;;;;10.73;2.35;;;;;;;;;;4994656;28;20026;-76
2023/09/16 10:39:38;;;;;;;2.53;2.03;;;;;;;;;;4994214;28;20076;-77
2023/09/16 10:42:05;;;;;;;7.00;2.35;;;;;;;;;;4994833;28;20034;-77
2023/09/16 10:44:31;;;;;;;4.57;2.50;;;;;;;;;;4994450;28;20061;-77
2023/09/16 10:46:59;;;;;;;2.78;2.20;;;;;;;;;;4995025;28;20026;-78
2023/09/16 10:49:24;;;;;;;3.78;2.65;;;;;;;;;;4994397;28;20398;-77
2023/09/16 10:51:59;;;;;;;3.80;2.40;;;;;;;;;;4979060;28;20025;-79
2023/09/16 10:54:33;;;;;;;3.72;2.47;;;;;;;;;;4994185;28;20037;-77
2023/09/16 10:57:04;;;;;;;4.90;2.13;;;;;;;;;;4975460;28;20168;-77
2023/09/16 10:59:34;;;;;;;3.85;2.28;;;;;;;;;;4993926;28;20034;-76
2023/09/16 11:02:38;;;;;;;3.25;2.05;;;;;;;;;;4993324;28;20182;-78
2023/09/16 11:05:04;;;;;;;6.15;2.25;;;;;;;;;;4917756;29;20063;-76
2023/09/16 11:07:30;;;;;;;4.60;2.30;;;;;;;;;;4983123;28;20068;-76
2023/09/16 11:09:55;;;;;;;4.55;2.38;;;;;;;;;;4993997;28;20054;-77
2023/09/16 11:12:21;;;;;;;2.58;2.20;;;;;;;;;;4976250;28;20026;-77
2023/09/16 11:14:46;;;;;;;4.22;2.50;;;;;;;;;;4993197;28;20385;-76
2023/09/16 11:17:15;;;;;;;2.72;2.13;;;;;;;;;;4976309;28;20046;-77
2023/09/16 11:19:42;;;;;;;4.63;2.38;;;;;;;;;;4976223;28;20023;-76
2023/09/16 11:22:08;;;;;;;4.82;2.50;;;;;;;;;;4976530;28;20046;-77
2023/09/16 11:24:34;;;;;;;3.42;2.40;;;;;;;;;;4993648;28;20481;-77
2023/09/16 11:27:00;;;;;;;2.58;2.20;;;;;;;;;;4994221;28;20081;-78
2023/09/16 11:29:28;;;;;;;4.13;2.42;;;;;;;;;;4994619;28;20026;-75
2023/09/16 11:31:55;;;;;;;4.82;2.55;;;;;;;;;;4993609;28;20057;-74
2023/09/16 11:34:24;;;;;;;3.55;2.60;;;;;;;;;;4976022;28;20061;-75
2023/09/16 11:36:58;;;;;;;3.40;2.50;;;;;;;;;;4993803;28;20073;-75
2023/09/16 11:39:42;;;;;;;5.40;2.47;;;;;;;;;;4993448;28;20022;-74
2023/09/16 11:42:10;;;;;;;;;;;;;;;;;;4994213;28;20030;-76
2023/09/16 11:44:38;;;;;;;3.67;2.20;;;;;;;;;;4976205;28;19945;-76
2023/09/16 11:47:04;;;;;;;3.25;2.60;;;;;;;;;;4976398;28;20037;-74
2023/09/16 11:49:34;;;;;;;3.42;2.33;;;;;;;;;;4993571;28;20022;-74
2023/09/16 11:52:00;;;;;;;5.28;2.50;;;;;;;;;;4993085;28;20080;-75
2023/09/16 11:54:25;;;;;;;3.60;2.50;;;;;;;;;;4993198;28;20481;-75
2023/09/16 11:56:53;;;;;;;3.85;2.30;;;;;;;;;;4993471;28;20069;-75
2023/09/16 11:59:18;;;;;;;5.22;2.30;;;;;;;;;;4993317;28;20029;-75
2023/09/16 12:01:44;;;;;;;3.03;2.33;;;;;;;;;;4993663;28;20129;-75
2023/09/16 12:04:11;;;;;;;2.90;2.17;;;;;;;;;;4993359;28;20473;-75
2023/09/16 12:06:37;;;;;;;2.92;2.10;;;;;;;;;;4975915;28;20053;-75
2023/09/16 12:09:06;;;;;;;2.80;2.25;;;;;;;;;;4993269;28;20029;-75
2023/09/16 12:11:32;;;;;;;3.25;2.50;;;;;;;;;;4994458;28;20022;-74
2023/09/16 12:14:00;;;;;;;2.83;2.30;;;;;;;;;;4993403;28;20080;-75
2023/09/16 12:16:26;;;;;;;3.78;2.35;;;;;;;;;;4993799;28;20045;-75
2023/09/16 12:18:52;;;;;;;3.60;2.33;;;;;;;;;;4993561;28;20026;-74
2023/09/16 12:21:17;;;;;;;6.70;2.50;;;;;;;;;;4993515;28;20042;-75
2023/09/16 12:23:45;;;;;;;2.75;2.30;;;;;;;;;;4975559;28;20032;-75
2023/09/16 12:26:11;;;;;;;3.47;2.42;;;;;;;;;;4994085;28;20018;-75
2023/09/16 12:28:38;;;;;;;3.17;2.40;;;;;;;;;;4979396;28;20029;-75
2023/09/16 12:31:03;;;;;;;3.88;2.30;;;;;;;;;;4997372;28;20026;-75
2023/09/16 12:33:48;;;;;;;2.42;2.13;;;;;;;;;;4996654;28;20402;-75
2023/09/16 12:36:17;;;;;;;3.72;2.60;;;;;;;;;;4997155;28;20034;-75
2023/09/16 12:38:45;;;;;;;3.35;2.42;;;;;;;;;;4996573;28;20034;-75
2023/09/16 12:41:14;;;;;;;3.05;2.30;;;;;;;;;;4979093;28;20031;-75
2023/09/16 12:43:41;;;;;;;3.03;2.13;;;;;;;;;;4996508;28;20057;-75
2023/09/16 12:46:08;;;;;;;3.10;2.30;;;;;;;;;;4978956;28;20518;-75
2023/09/16 12:48:34;;;;;;;6.38;2.42;;;;;;;;;;4995937;28;20030;-76
2023/09/16 12:51:00;;;;;;;3.05;2.20;;;;;;;;;;4995502;28;20073;-74
2023/09/16 12:53:26;;;;;;;2.90;2.30;;;;;;;;;;4994845;28;20486;-75
2023/09/16 12:55:52;;;;;;;4.70;2.30;;;;;;;;;;4996250;28;20037;-75
2023/09/16 12:58:21;;;;;;;3.38;2.50;;;;;;;;;;4996057;28;20039;-74
2023/09/16 13:00:48;;;;;;;4.65;2.70;;;;;;;;;;4996100;28;20110;-75
2023/09/16 13:03:17;;;;;;;6.63;2.60;;;;;;;;;;4978737;28;20038;-75
2023/09/16 13:05:55;;;;;;;4.25;2.58;;;;;;;;;;4978630;28;20072;-75
2023/09/16 13:08:21;;;;;;;3.45;2.58;;;;;;;;;;4978803;28;20488;-75
2023/09/16 13:10:48;;;;;;;4.25;2.63;;;;;;;;;;4996193;28;20030;-75
2023/09/16 13:13:14;;;;;;;6.97;2.47;;;;;;;;;;4978832;28;20034;-75
2023/09/16 13:15:44;;;;;;;6.10;2.58;;;;;;;;;;4996193;28;20062;-75
2023/09/16 13:18:09;;;;;;;5.40;2.30;;;;;;;;;;4996206;28;20061;-75
2023/09/16 13:20:36;;;;;;;2.85;2.05;;;;;;;;;;4996105;28;20022;-75
2023/09/16 13:23:02;;;;;;;3.58;2.60;;;;;;;;;;4995796;28;20082;-75
2023/09/16 13:25:38;;;;;;;3.05;2.20;;;;;;;;;;4995646;28;20026;-75
2023/09/16 13:28:21;;;;;;;2.88;2.22;;;;;;;;;;4996141;28;20037;-75
2023/09/16 13:30:53;;;;;;;5.18;2.20;;;;;;;;;;4996072;28;20026;-75
2023/09/16 13:33:37;;;;;;;5.38;2.50;;;;;;;;;;4995624;28;20026;-75
2023/09/16 13:36:03;;;;;;;3.90;2.30;;;;;;;;;;4995697;28;20169;-74
2023/09/16 13:38:28;;;;;;;3.38;2.40;;;;;;;;;;4977813;28;20048;-75
2023/09/16 13:40:54;;;;;;;3.70;2.40;;;;;;;;;;4995497;28;20108;-75
2023/09/16 13:43:19;;;;;;;2.93;2.30;;;;;;;;;;4995408;28;20397;-75
2023/09/16 13:45:44;;;;;;;3.33;2.30;;;;;;;;;;4978010;28;20635;-75
2023/09/16 13:48:16;;;;;;;3.23;2.13;;;;;;;;;;4995449;28;20054;-75
2023/09/16 13:50:43;;;;;;;3.03;2.25;;;;;;;;;;4995951;28;20240;-75
2023/09/16 13:53:15;;;;;;;3.78;2.30;;;;;;;;;;4995304;28;20026;-75
2023/09/16 13:55:42;;;;;;;3.78;2.00;;;;;;;;;;4995343;28;20454;-75
2023/09/16 13:58:07;;;;;;;3.38;2.40;;;;;;;;;;4995338;28;20038;-75
2023/09/16 14:00:34;;;;;;;3.75;2.40;;;;;;;;;;4995405;28;20041;-75
2023/09/16 14:03:00;;;;;;;2.40;2.20;;;;;;;;;;4995118;28;20026;-75
2023/09/16 14:05:27;;;;;;;3.63;2.47;;;;;;;;;;4995587;28;20105;-75
2023/09/16 14:07:53;;;;;;;6.60;2.30;;;;;;;;;;4995367;28;20049;-74
2023/09/16 14:10:18;;;;;;;4.80;2.58;;;;;;;;;;4995410;28;20489;-75
2023/09/16 14:12:44;;;;;;;5.80;2.50;;;;;;;;;;4977548;28;20094;-75
2023/09/16 14:15:09;;;;;;;2.77;2.20;;;;;;;;;;4994947;28;20030;-75
2023/09/16 14:17:35;;;;;;;4.85;2.22;;;;;;;;;;4977451;28;20256;-75
2023/09/16 14:20:00;;;;;;;5.35;2.28;;;;;;;;;;4994719;28;20030;-75
2023/09/16 14:22:29;;;;;;;3.07;2.40;;;;;;;;;;4977360;28;20033;-75
2023/09/16 14:24:54;;;;;;;4.03;2.38;;;;;;;;;;4994732;28;20299;-75
2023/09/16 14:27:20;;;;;;;5.22;2.10;;;;;;;;;;4994959;28;20409;-75
2023/09/16 14:29:45;;;;;;;6.47;2.33;;;;;;;;;;4994782;28;20019;-75
2023/09/16 14:32:10;;;;;;;3.15;2.53;;;;;;;;;;4995198;28;20344;-75
2023/09/16 14:34:35;;;;;;;3.00;2.50;;;;;;;;;;4994642;28;20040;-75
2023/09/16 14:37:01;;;;;;;3.00;2.28;;;;;;;;;;4977728;28;20264;-75
2023/09/16 14:39:26;;;;;;;2.40;2.10;;;;;;;;;;4977800;28;20054;-75
2023/09/16 14:41:51;;;;;;;4.07;2.42;;;;;;;;;;4995706;28;20267;-74